sensor_id;sensor_type;location;lat;lon;timestamp;temperature;humidity
52743;DHT22;55583;53.012;6.556;2023-07-29T00:01:30;18.30;99.90
52743;DHT22;55583;53.012;6.556;2023-07-29T00:03:56;18.30;99.90
52743;DHT22;55583;53.012;6.556;2023-07-29T00:06:21;18.30;99.90
52743;DHT22;55583;53.012;6.556;2023-07-29T00:08:47;18.30;99.90
52743;DHT22;55583;53.012;6.556;2023-07-29T00:11:13;18.30;99.90
52743;DHT22;55583;53.012;6.556;2023-07-29T00:13:38;18.30;99.90
52743;DHT22;55583;53.012;6.556;2023-07-29T00:16:04;18.40;99.90
52743;DHT22;55583;53.012;6.556;2023-07-29T00:18:30;18.30;99.90
52743;DHT22;55583;53.012;6.556;2023-07-29T00:20:56;18.40;99.90
52743;DHT22;55583;53.012;6.556;2023-07-29T00:23:23;18.40;99.90
52743;DHT22;55583;53.012;6.556;2023-07-29T00:25:49;18.40;99.90
52743;DHT22;55583;53.012;6.556;2023-07-29T00:28:14;18.40;99.90
52743;DHT22;55583;53.012;6.556;2023-07-29T00:30:40;18.30;99.90
52743;DHT22;55583;53.012;6.556;2023-07-29T00:33:06;18.20;99.90
52743;DHT22;55583;53.012;6.556;2023-07-29T00:35:31;18.20;99.90
52743;DHT22;55583;53.012;6.556;2023-07-29T00:37:57;18.10;99.90
52743;DHT22;55583;53.012;6.556;2023-07-29T00:40:23;18.10;99.90
52743;DHT22;55583;53.012;6.556;2023-07-29T00:42:49;18.10;99.90
52743;DHT22;55583;53.012;6.556;2023-07-29T00:45:15;18.00;99.90
52743;DHT22;55583;53.012;6.556;2023-07-29T00:47:42;18.00;99.90
52743;DHT22;55583;53.012;6.556;2023-07-29T00:50:09;17.90;99.90
52743;DHT22;55583;53.012;6.556;2023-07-29T00:52:36;17.90;99.90
52743;DHT22;55583;53.012;6.556;2023-07-29T00:55:03;17.80;99.90
52743;DHT22;55583;53.012;6.556;2023-07-29T00:57:30;17.80;99.90
52743;DHT22;55583;53.012;6.556;2023-07-29T00:59:55;17.70;99.90
52743;DHT22;55583;53.012;6.556;2023-07-29T01:02:21;17.70;99.90
52743;DHT22;55583;53.012;6.556;2023-07-29T01:04:58;17.70;99.90
52743;DHT22;55583;53.012;6.556;2023-07-29T01:07:30;17.60;99.90
52743;DHT22;55583;53.012;6.556;2023-07-29T01:10:51;17.60;99.90
52743;DHT22;55583;53.012;6.556;2023-07-29T01:15:32;17.50;99.90
52743;DHT22;55583;53.012;6.556;2023-07-29T01:18:35;17.40;99.90
52743;DHT22;55583;53.012;6.556;2023-07-29T01:21:04;17.40;99.90
52743;DHT22;55583;53.012;6.556;2023-07-29T01:23:31;17.40;99.90
52743;DHT22;55583;53.012;6.556;2023-07-29T01:25:57;17.40;99.90
52743;DHT22;55583;53.012;6.556;2023-07-29T01:28:23;17.30;99.90
52743;DHT22;55583;53.012;6.556;2023-07-29T01:30:51;17.30;99.90
52743;DHT22;55583;53.012;6.556;2023-07-29T01:33:26;17.20;99.90
52743;DHT22;55583;53.012;6.556;2023-07-29T01:35:57;17.20;99.90
52743;DHT22;55583;53.012;6.556;2023-07-29T01:38:35;17.20;99.90
52743;DHT22;55583;53.012;6.556;2023-07-29T01:41:02;17.10;99.90
52743;DHT22;55583;53.012;6.556;2023-07-29T01:43:29;17.10;99.90
52743;DHT22;55583;53.012;6.556;2023-07-29T01:45:55;17.10;99.90
52743;DHT22;55583;53.012;6.556;2023-07-29T01:48:21;17.00;99.90
52743;DHT22;55583;53.012;6.556;2023-07-29T01:50:47;17.00;99.90
52743;DHT22;55583;53.012;6.556;2023-07-29T01:53:12;17.00;99.90
52743;DHT22;55583;53.012;6.556;2023-07-29T01:55:39;16.90;99.90
52743;DHT22;55583;53.012;6.556;2023-07-29T01:58:04;17.00;99.90
52743;DHT22;55583;53.012;6.556;2023-07-29T02:00:30;17.00;99.90
52743;DHT22;55583;53.012;6.556;2023-07-29T02:02:56;17.00;99.90
52743;DHT22;55583;53.012;6.556;2023-07-29T02:05:21;16.90;99.90
52743;DHT22;55583;53.012;6.556;2023-07-29T02:07:47;16.90;99.90
52743;DHT22;55583;53.012;6.556;2023-07-29T02:10:12;17.00;99.90
52743;DHT22;55583;53.012;6.556;2023-07-29T02:12:38;17.00;99.90
52743;DHT22;55583;53.012;6.556;2023-07-29T02:15:04;17.10;99.90
52743;DHT22;55583;53.012;6.556;2023-07-29T02:17:30;17.10;99.90
52743;DHT22;55583;53.012;6.556;2023-07-29T02:19:56;17.10;99.90
52743;DHT22;55583;53.012;6.556;2023-07-29T02:22:22;17.10;99.90
52743;DHT22;55583;53.012;6.556;2023-07-29T02:24:47;17.10;99.90
52743;DHT22;55583;53.012;6.556;2023-07-29T02:27:13;17.10;99.90
52743;DHT22;55583;53.012;6.556;2023-07-29T02:29:39;17.10;99.90
52743;DHT22;55583;53.012;6.556;2023-07-29T02:32:04;17.00;99.90
52743;DHT22;55583;53.012;6.556;2023-07-29T02:34:30;17.00;99.90
52743;DHT22;55583;53.012;6.556;2023-07-29T02:36:56;17.00;99.90
52743;DHT22;55583;53.012;6.556;2023-07-29T02:39:22;16.90;99.90
52743;DHT22;55583;53.012;6.556;2023-07-29T02:41:48;16.80;99.90
52743;DHT22;55583;53.012;6.556;2023-07-29T02:44:15;16.80;99.90
52743;DHT22;55583;53.012;6.556;2023-07-29T02:46:40;16.80;99.90
52743;DHT22;55583;53.012;6.556;2023-07-29T02:49:06;16.80;99.90
52743;DHT22;55583;53.012;6.556;2023-07-29T02:51:32;16.70;99.90
52743;DHT22;55583;53.012;6.556;2023-07-29T02:53:57;16.70;99.90
52743;DHT22;55583;53.012;6.556;2023-07-29T02:56:23;16.70;99.90
52743;DHT22;55583;53.012;6.556;2023-07-29T02:58:49;16.70;99.90
52743;DHT22;55583;53.012;6.556;2023-07-29T03:01:17;16.60;99.90
52743;DHT22;55583;53.012;6.556;2023-07-29T03:03:43;16.70;99.90
52743;DHT22;55583;53.012;6.556;2023-07-29T03:06:10;16.70;99.90
52743;DHT22;55583;53.012;6.556;2023-07-29T03:08:36;16.70;99.90
52743;DHT22;55583;53.012;6.556;2023-07-29T03:11:10;16.60;99.90
52743;DHT22;55583;53.012;6.556;2023-07-29T03:13:37;16.60;99.90
52743;DHT22;55583;53.012;6.556;2023-07-29T03:16:10;16.50;99.90
52743;DHT22;55583;53.012;6.556;2023-07-29T03:18:37;16.60;99.90
52743;DHT22;55583;53.012;6.556;2023-07-29T03:21:03;16.60;99.90
52743;DHT22;55583;53.012;6.556;2023-07-29T03:23:29;16.60;99.90
52743;DHT22;55583;53.012;6.556;2023-07-29T03:25:56;16.50;99.90
52743;DHT22;55583;53.012;6.556;2023-07-29T03:28:29;16.50;99.90
52743;DHT22;55583;53.012;6.556;2023-07-29T03:30:55;16.50;99.90
52743;DHT22;55583;53.012;6.556;2023-07-29T03:33:22;16.50;99.90
52743;DHT22;55583;53.012;6.556;2023-07-29T03:35:48;16.50;99.90
52743;DHT22;55583;53.012;6.556;2023-07-29T03:38:14;16.40;99.90
52743;DHT22;55583;53.012;6.556;2023-07-29T03:40:41;16.40;99.90
52743;DHT22;55583;53.012;6.556;2023-07-29T03:43:07;16.50;99.90
52743;DHT22;55583;53.012;6.556;2023-07-29T03:45:33;16.50;99.90
52743;DHT22;55583;53.012;6.556;2023-07-29T03:47:59;16.50;99.90
52743;DHT22;55583;53.012;6.556;2023-07-29T03:50:25;16.50;99.90
52743;DHT22;55583;53.012;6.556;2023-07-29T03:52:51;16.40;99.90
52743;DHT22;55583;53.012;6.556;2023-07-29T03:55:16;16.40;99.90
52743;DHT22;55583;53.012;6.556;2023-07-29T03:57:42;16.40;99.90
52743;DHT22;55583;53.012;6.556;2023-07-29T04:00:08;16.40;99.90
52743;DHT22;55583;53.012;6.556;2023-07-29T04:02:37;16.40;99.90
52743;DHT22;55583;53.012;6.556;2023-07-29T04:05:04;16.30;99.90
52743;DHT22;55583;53.012;6.556;2023-07-29T04:07:30;16.30;99.90
52743;DHT22;55583;53.012;6.556;2023-07-29T04:09:56;16.30;99.90
52743;DHT22;55583;53.012;6.556;2023-07-29T04:12:22;16.30;99.90
52743;DHT22;55583;53.012;6.556;2023-07-29T04:14:49;16.30;99.90
52743;DHT22;55583;53.012;6.556;2023-07-29T04:17:14;16.30;99.90
52743;DHT22;55583;53.012;6.556;2023-07-29T04:19:40;16.30;99.90
52743;DHT22;55583;53.012;6.556;2023-07-29T04:22:06;16.30;99.90
52743;DHT22;55583;53.012;6.556;2023-07-29T04:24:32;16.30;99.90
52743;DHT22;55583;53.012;6.556;2023-07-29T04:26:58;16.30;99.90
52743;DHT22;55583;53.012;6.556;2023-07-29T04:29:23;16.30;99.90
52743;DHT22;55583;53.012;6.556;2023-07-29T04:31:52;16.40;99.90
52743;DHT22;55583;53.012;6.556;2023-07-29T04:34:19;16.40;99.90
52743;DHT22;55583;53.012;6.556;2023-07-29T04:36:48;16.40;99.90
52743;DHT22;55583;53.012;6.556;2023-07-29T04:39:14;16.50;99.90
52743;DHT22;55583;53.012;6.556;2023-07-29T04:41:40;16.50;99.90
52743;DHT22;55583;53.012;6.556;2023-07-29T04:44:06;16.50;99.90
52743;DHT22;55583;53.012;6.556;2023-07-29T04:46:32;16.60;99.90
52743;DHT22;55583;53.012;6.556;2023-07-29T04:48:58;16.60;99.90
52743;DHT22;55583;53.012;6.556;2023-07-29T04:51:24;16.60;99.90
52743;DHT22;55583;53.012;6.556;2023-07-29T04:53:50;16.60;99.90
52743;DHT22;55583;53.012;6.556;2023-07-29T04:56:16;16.60;99.90
52743;DHT22;55583;53.012;6.556;2023-07-29T04:58:41;16.70;99.90
52743;DHT22;55583;53.012;6.556;2023-07-29T05:01:07;16.70;99.90
52743;DHT22;55583;53.012;6.556;2023-07-29T05:03:33;16.70;99.90
52743;DHT22;55583;53.012;6.556;2023-07-29T05:05:59;16.70;99.90
52743;DHT22;55583;53.012;6.556;2023-07-29T05:08:28;16.80;99.90
52743;DHT22;55583;53.012;6.556;2023-07-29T05:10:54;16.80;99.90
52743;DHT22;55583;53.012;6.556;2023-07-29T05:13:21;16.80;99.90
52743;DHT22;55583;53.012;6.556;2023-07-29T05:15:48;16.80;99.90
52743;DHT22;55583;53.012;6.556;2023-07-29T05:18:14;16.80;99.90
52743;DHT22;55583;53.012;6.556;2023-07-29T05:20:40;16.80;99.90
52743;DHT22;55583;53.012;6.556;2023-07-29T05:23:05;16.80;99.90
52743;DHT22;55583;53.012;6.556;2023-07-29T05:25:31;16.80;99.90
52743;DHT22;55583;53.012;6.556;2023-07-29T05:27:57;16.90;99.90
52743;DHT22;55583;53.012;6.556;2023-07-29T05:30:23;16.90;99.90
52743;DHT22;55583;53.012;6.556;2023-07-29T05:32:48;17.00;99.90
52743;DHT22;55583;53.012;6.556;2023-07-29T05:35:14;17.00;99.90
52743;DHT22;55583;53.012;6.556;2023-07-29T05:37:40;17.00;99.90
52743;DHT22;55583;53.012;6.556;2023-07-29T05:40:06;17.00;99.90
52743;DHT22;55583;53.012;6.556;2023-07-29T05:42:33;17.10;99.90
52743;DHT22;55583;53.012;6.556;2023-07-29T05:44:59;17.10;99.90
52743;DHT22;55583;53.012;6.556;2023-07-29T05:47:25;17.10;99.90
52743;DHT22;55583;53.012;6.556;2023-07-29T05:49:51;17.20;99.90
52743;DHT22;55583;53.012;6.556;2023-07-29T05:52:17;17.10;99.90
52743;DHT22;55583;53.012;6.556;2023-07-29T05:54:43;17.10;99.90
52743;DHT22;55583;53.012;6.556;2023-07-29T05:57:12;17.20;99.90
52743;DHT22;55583;53.012;6.556;2023-07-29T05:59:38;17.10;99.90
52743;DHT22;55583;53.012;6.556;2023-07-29T06:02:04;17.10;99.90
52743;DHT22;55583;53.012;6.556;2023-07-29T06:04:30;17.20;99.90
52743;DHT22;55583;53.012;6.556;2023-07-29T06:06:55;17.30;99.90
52743;DHT22;55583;53.012;6.556;2023-07-29T06:09:24;17.30;99.90
52743;DHT22;55583;53.012;6.556;2023-07-29T06:11:51;17.40;99.90
52743;DHT22;55583;53.012;6.556;2023-07-29T06:14:17;17.50;99.90
52743;DHT22;55583;53.012;6.556;2023-07-29T06:16:42;17.50;99.90
52743;DHT22;55583;53.012;6.556;2023-07-29T06:19:08;17.60;99.90
52743;DHT22;55583;53.012;6.556;2023-07-29T06:21:34;17.60;99.90
52743;DHT22;55583;53.012;6.556;2023-07-29T06:24:00;17.60;99.90
52743;DHT22;55583;53.012;6.556;2023-07-29T06:26:26;17.60;99.90
52743;DHT22;55583;53.012;6.556;2023-07-29T06:28:52;17.60;99.90
52743;DHT22;55583;53.012;6.556;2023-07-29T06:31:17;17.80;99.90
52743;DHT22;55583;53.012;6.556;2023-07-29T06:33:43;18.00;99.90
52743;DHT22;55583;53.012;6.556;2023-07-29T06:36:09;18.30;99.90
52743;DHT22;55583;53.012;6.556;2023-07-29T06:38:34;18.60;99.90
52743;DHT22;55583;53.012;6.556;2023-07-29T06:41:00;18.90;99.90
52743;DHT22;55583;53.012;6.556;2023-07-29T06:43:26;19.20;99.90
52743;DHT22;55583;53.012;6.556;2023-07-29T06:45:51;19.40;99.90
52743;DHT22;55583;53.012;6.556;2023-07-29T06:48:17;19.50;99.90
52743;DHT22;55583;53.012;6.556;2023-07-29T06:50:44;19.50;99.90
52743;DHT22;55583;53.012;6.556;2023-07-29T06:53:10;19.40;99.90
52743;DHT22;55583;53.012;6.556;2023-07-29T06:55:35;19.50;99.90
52743;DHT22;55583;53.012;6.556;2023-07-29T06:58:01;19.50;99.90
52743;DHT22;55583;53.012;6.556;2023-07-29T07:00:27;19.50;99.90
52743;DHT22;55583;53.012;6.556;2023-07-29T07:02:53;19.50;99.90
52743;DHT22;55583;53.012;6.556;2023-07-29T07:05:19;19.50;99.90
52743;DHT22;55583;53.012;6.556;2023-07-29T07:07:44;19.50;99.90
52743;DHT22;55583;53.012;6.556;2023-07-29T07:10:10;19.50;99.90
52743;DHT22;55583;53.012;6.556;2023-07-29T07:12:36;19.50;99.90
52743;DHT22;55583;53.012;6.556;2023-07-29T07:15:01;19.60;99.90
52743;DHT22;55583;53.012;6.556;2023-07-29T07:17:27;19.60;99.90
52743;DHT22;55583;53.012;6.556;2023-07-29T07:19:52;19.60;99.90
52743;DHT22;55583;53.012;6.556;2023-07-29T07:22:18;19.60;99.90
52743;DHT22;55583;53.012;6.556;2023-07-29T07:24:44;19.70;99.90
52743;DHT22;55583;53.012;6.556;2023-07-29T07:27:10;19.60;99.90
52743;DHT22;55583;53.012;6.556;2023-07-29T07:29:35;19.60;99.90
52743;DHT22;55583;53.012;6.556;2023-07-29T07:32:01;19.60;99.90
52743;DHT22;55583;53.012;6.556;2023-07-29T07:34:27;19.70;99.90
52743;DHT22;55583;53.012;6.556;2023-07-29T07:36:53;19.90;99.90
52743;DHT22;55583;53.012;6.556;2023-07-29T07:39:19;20.00;99.90
52743;DHT22;55583;53.012;6.556;2023-07-29T07:41:44;20.10;99.90
52743;DHT22;55583;53.012;6.556;2023-07-29T07:44:10;20.10;99.90
52743;DHT22;55583;53.012;6.556;2023-07-29T07:46:38;20.20;99.90
52743;DHT22;55583;53.012;6.556;2023-07-29T07:49:03;20.30;99.90
52743;DHT22;55583;53.012;6.556;2023-07-29T07:51:29;20.60;99.90
52743;DHT22;55583;53.012;6.556;2023-07-29T07:53:55;20.80;99.90
52743;DHT22;55583;53.012;6.556;2023-07-29T07:56:21;20.80;99.90
52743;DHT22;55583;53.012;6.556;2023-07-29T07:58:46;20.80;99.90
52743;DHT22;55583;53.012;6.556;2023-07-29T08:01:12;20.80;99.90
52743;DHT22;55583;53.012;6.556;2023-07-29T08:03:38;20.80;99.90
52743;DHT22;55583;53.012;6.556;2023-07-29T08:06:04;20.90;99.90
52743;DHT22;55583;53.012;6.556;2023-07-29T08:08:30;21.00;99.90
52743;DHT22;55583;53.012;6.556;2023-07-29T08:10:57;20.90;99.90
52743;DHT22;55583;53.012;6.556;2023-07-29T08:13:23;20.90;99.90
52743;DHT22;55583;53.012;6.556;2023-07-29T08:15:51;20.90;99.90
52743;DHT22;55583;53.012;6.556;2023-07-29T08:18:17;21.00;99.90
52743;DHT22;55583;53.012;6.556;2023-07-29T08:21:00;21.10;99.90
52743;DHT22;55583;53.012;6.556;2023-07-29T08:23:33;21.20;99.90
52743;DHT22;55583;53.012;6.556;2023-07-29T08:26:01;21.30;99.90
52743;DHT22;55583;53.012;6.556;2023-07-29T08:28:34;21.20;99.90
52743;DHT22;55583;53.012;6.556;2023-07-29T08:31:00;21.40;99.90
52743;DHT22;55583;53.012;6.556;2023-07-29T08:33:26;21.50;99.90
52743;DHT22;55583;53.012;6.556;2023-07-29T08:35:52;21.70;99.90
52743;DHT22;55583;53.012;6.556;2023-07-29T08:38:18;21.90;99.90
52743;DHT22;55583;53.012;6.556;2023-07-29T08:40:54;22.10;99.90
52743;DHT22;55583;53.012;6.556;2023-07-29T08:43:27;22.60;99.90
52743;DHT22;55583;53.012;6.556;2023-07-29T08:45:54;22.70;99.90
52743;DHT22;55583;53.012;6.556;2023-07-29T08:48:27;22.80;99.90
52743;DHT22;55583;53.012;6.556;2023-07-29T08:50:55;22.60;99.90
52743;DHT22;55583;53.012;6.556;2023-07-29T08:53:21;22.30;99.90
52743;DHT22;55583;53.012;6.556;2023-07-29T08:55:48;22.10;99.90
52743;DHT22;55583;53.012;6.556;2023-07-29T08:58:14;21.80;99.90
52743;DHT22;55583;53.012;6.556;2023-07-29T09:00:41;21.70;99.90
52743;DHT22;55583;53.012;6.556;2023-07-29T09:03:07;21.80;99.90
52743;DHT22;55583;53.012;6.556;2023-07-29T09:05:36;22.20;99.90
52743;DHT22;55583;53.012;6.556;2023-07-29T09:08:02;22.40;99.90
52743;DHT22;55583;53.012;6.556;2023-07-29T09:10:29;22.80;99.90
52743;DHT22;55583;53.012;6.556;2023-07-29T09:12:55;23.50;99.90
52743;DHT22;55583;53.012;6.556;2023-07-29T09:15:32;24.10;99.90
52743;DHT22;55583;53.012;6.556;2023-07-29T09:17:58;25.20;96.60
52743;DHT22;55583;53.012;6.556;2023-07-29T09:20:28;25.80;93.30
52743;DHT22;55583;53.012;6.556;2023-07-29T09:22:55;25.70;90.80
52743;DHT22;55583;53.012;6.556;2023-07-29T09:25:27;25.20;90.80
52743;DHT22;55583;53.012;6.556;2023-07-29T09:27:59;24.60;91.10
52743;DHT22;55583;53.012;6.556;2023-07-29T09:30:25;24.40;92.60
52743;DHT22;55583;53.012;6.556;2023-07-29T09:32:58;25.10;92.90
52743;DHT22;55583;53.012;6.556;2023-07-29T09:35:33;26.20;90.10
52743;DHT22;55583;53.012;6.556;2023-07-29T09:37:59;26.70;87.20
52743;DHT22;55583;53.012;6.556;2023-07-29T09:40:24;27.10;87.30
52743;DHT22;55583;53.012;6.556;2023-07-29T09:42:51;27.40;83.50
52743;DHT22;55583;53.012;6.556;2023-07-29T09:45:25;27.20;81.10
52743;DHT22;55583;53.012;6.556;2023-07-29T09:47:52;27.10;77.70
52743;DHT22;55583;53.012;6.556;2023-07-29T09:50:17;27.80;78.90
52743;DHT22;55583;53.012;6.556;2023-07-29T09:52:44;28.30;74.90
52743;DHT22;55583;53.012;6.556;2023-07-29T09:55:13;28.00;76.00
52743;DHT22;55583;53.012;6.556;2023-07-29T09:57:40;28.30;75.30
52743;DHT22;55583;53.012;6.556;2023-07-29T10:00:06;29.40;73.90
52743;DHT22;55583;53.012;6.556;2023-07-29T10:02:38;30.30;71.70
52743;DHT22;55583;53.012;6.556;2023-07-29T10:05:06;31.10;67.20
52743;DHT22;55583;53.012;6.556;2023-07-29T10:07:34;31.40;65.50
52743;DHT22;55583;53.012;6.556;2023-07-29T10:10:02;31.10;66.10
52743;DHT22;55583;53.012;6.556;2023-07-29T10:12:29;30.40;66.60
52743;DHT22;55583;53.012;6.556;2023-07-29T10:14:59;29.20;68.40
52743;DHT22;55583;53.012;6.556;2023-07-29T10:17:26;28.10;69.30
52743;DHT22;55583;53.012;6.556;2023-07-29T10:19:53;27.10;71.00
52743;DHT22;55583;53.012;6.556;2023-07-29T10:22:20;26.40;73.20
52743;DHT22;55583;53.012;6.556;2023-07-29T10:24:48;25.80;74.60
52743;DHT22;55583;53.012;6.556;2023-07-29T10:27:16;25.30;76.10
52743;DHT22;55583;53.012;6.556;2023-07-29T10:29:44;25.00;77.60
52743;DHT22;55583;53.012;6.556;2023-07-29T10:32:11;25.40;78.00
52743;DHT22;55583;53.012;6.556;2023-07-29T10:34:37;26.40;76.40
52743;DHT22;55583;53.012;6.556;2023-07-29T10:37:04;27.60;74.60
52743;DHT22;55583;53.012;6.556;2023-07-29T10:39:41;28.70;71.00
52743;DHT22;55583;53.012;6.556;2023-07-29T10:42:16;28.60;69.00
52743;DHT22;55583;53.012;6.556;2023-07-29T10:44:45;28.10;70.10
52743;DHT22;55583;53.012;6.556;2023-07-29T10:49:41;26.70;72.10
52743;DHT22;55583;53.012;6.556;2023-07-29T10:52:07;26.20;74.70
52743;DHT22;55583;53.012;6.556;2023-07-29T10:54:42;26.00;74.90
52743;DHT22;55583;53.012;6.556;2023-07-29T10:57:16;26.10;75.40
52743;DHT22;55583;53.012;6.556;2023-07-29T10:59:54;25.90;75.70
52743;DHT22;55583;53.012;6.556;2023-07-29T11:02:21;25.40;78.80
52743;DHT22;55583;53.012;6.556;2023-07-29T11:04:53;24.80;83.60
52743;DHT22;55583;53.012;6.556;2023-07-29T11:07:20;24.20;87.60
52743;DHT22;55583;53.012;6.556;2023-07-29T11:12:45;24.50;86.10
52743;DHT22;55583;53.012;6.556;2023-07-29T11:17:53;25.50;80.60
52743;DHT22;55583;53.012;6.556;2023-07-29T11:20:22;25.60;78.90
52743;DHT22;55583;53.012;6.556;2023-07-29T11:22:48;25.10;79.00
52743;DHT22;55583;53.012;6.556;2023-07-29T11:25:15;24.70;80.40
52743;DHT22;55583;53.012;6.556;2023-07-29T11:27:41;24.50;81.70
52743;DHT22;55583;53.012;6.556;2023-07-29T11:30:10;24.40;82.30
52743;DHT22;55583;53.012;6.556;2023-07-29T11:32:37;24.60;83.60
52743;DHT22;55583;53.012;6.556;2023-07-29T11:35:11;24.80;82.70
52743;DHT22;55583;53.012;6.556;2023-07-29T11:37:38;25.80;78.50
52743;DHT22;55583;53.012;6.556;2023-07-29T11:40:05;26.90;76.10
52743;DHT22;55583;53.012;6.556;2023-07-29T11:42:37;27.10;74.20
52743;DHT22;55583;53.012;6.556;2023-07-29T11:45:04;27.00;74.10
52743;DHT22;55583;53.012;6.556;2023-07-29T11:47:32;27.00;74.80
52743;DHT22;55583;53.012;6.556;2023-07-29T11:50:01;27.20;74.00
52743;DHT22;55583;53.012;6.556;2023-07-29T11:52:28;27.00;73.00
52743;DHT22;55583;53.012;6.556;2023-07-29T11:54:54;26.50;73.00
52743;DHT22;55583;53.012;6.556;2023-07-29T11:57:20;26.20;73.90
52743;DHT22;55583;53.012;6.556;2023-07-29T11:59:46;26.00;75.20
52743;DHT22;55583;53.012;6.556;2023-07-29T12:02:14;26.40;74.60
52743;DHT22;55583;53.012;6.556;2023-07-29T12:04:41;26.30;74.20
52743;DHT22;55583;53.012;6.556;2023-07-29T12:07:08;25.80;75.30
52743;DHT22;55583;53.012;6.556;2023-07-29T12:09:35;25.30;76.10
52743;DHT22;55583;53.012;6.556;2023-07-29T12:12:03;24.80;76.40
52743;DHT22;55583;53.012;6.556;2023-07-29T12:14:29;24.50;77.20
52743;DHT22;55583;53.012;6.556;2023-07-29T12:16:55;24.30;77.90
52743;DHT22;55583;53.012;6.556;2023-07-29T12:19:20;24.20;78.30
52743;DHT22;55583;53.012;6.556;2023-07-29T12:21:48;24.50;78.40
52743;DHT22;55583;53.012;6.556;2023-07-29T12:24:14;25.30;77.40
52743;DHT22;55583;53.012;6.556;2023-07-29T12:26:41;25.50;76.10
52743;DHT22;55583;53.012;6.556;2023-07-29T12:29:14;25.10;76.90
52743;DHT22;55583;53.012;6.556;2023-07-29T12:31:40;24.80;77.60
52743;DHT22;55583;53.012;6.556;2023-07-29T12:34:05;24.60;78.30
52743;DHT22;55583;53.012;6.556;2023-07-29T12:36:46;24.80;77.80
52743;DHT22;55583;53.012;6.556;2023-07-29T12:39:26;24.80;77.00
52743;DHT22;55583;53.012;6.556;2023-07-29T12:41:53;24.80;77.20
52743;DHT22;55583;53.012;6.556;2023-07-29T12:44:19;25.20;77.60
52743;DHT22;55583;53.012;6.556;2023-07-29T12:46:45;26.10;76.70
52743;DHT22;55583;53.012;6.556;2023-07-29T12:49:11;26.70;74.00
52743;DHT22;55583;53.012;6.556;2023-07-29T12:51:37;26.90;73.40
52743;DHT22;55583;53.012;6.556;2023-07-29T12:54:06;27.00;72.40
52743;DHT22;55583;53.012;6.556;2023-07-29T12:56:32;27.40;71.10
52743;DHT22;55583;53.012;6.556;2023-07-29T12:58:58;27.80;70.50
52743;DHT22;55583;53.012;6.556;2023-07-29T13:01:25;27.60;69.70
52743;DHT22;55583;53.012;6.556;2023-07-29T13:03:50;27.10;70.20
52743;DHT22;55583;53.012;6.556;2023-07-29T13:06:16;27.00;71.20
52743;DHT22;55583;53.012;6.556;2023-07-29T13:08:42;27.10;71.20
52743;DHT22;55583;53.012;6.556;2023-07-29T13:11:08;27.30;70.70
52743;DHT22;55583;53.012;6.556;2023-07-29T13:13:34;27.50;71.10
52743;DHT22;55583;53.012;6.556;2023-07-29T13:16:00;27.50;70.30
52743;DHT22;55583;53.012;6.556;2023-07-29T13:18:27;27.40;69.60
52743;DHT22;55583;53.012;6.556;2023-07-29T13:20:53;27.40;68.80
52743;DHT22;55583;53.012;6.556;2023-07-29T13:23:19;27.70;67.50
52743;DHT22;55583;53.012;6.556;2023-07-29T13:25:44;28.20;67.10
52743;DHT22;55583;53.012;6.556;2023-07-29T13:28:10;28.60;67.70
52743;DHT22;55583;53.012;6.556;2023-07-29T13:30:36;28.60;66.30
52743;DHT22;55583;53.012;6.556;2023-07-29T13:33:02;28.30;67.10
52743;DHT22;55583;53.012;6.556;2023-07-29T13:35:29;27.90;66.90
52743;DHT22;55583;53.012;6.556;2023-07-29T13:37:55;27.70;67.10
52743;DHT22;55583;53.012;6.556;2023-07-29T13:40:21;27.90;66.50
52743;DHT22;55583;53.012;6.556;2023-07-29T13:42:47;27.90;65.20
52743;DHT22;55583;53.012;6.556;2023-07-29T13:45:12;28.10;64.40
52743;DHT22;55583;53.012;6.556;2023-07-29T13:47:38;28.50;65.30
52743;DHT22;55583;53.012;6.556;2023-07-29T13:50:04;28.70;62.30
52743;DHT22;55583;53.012;6.556;2023-07-29T13:52:30;28.50;62.50
52743;DHT22;55583;53.012;6.556;2023-07-29T13:54:55;28.10;62.90
52743;DHT22;55583;53.012;6.556;2023-07-29T13:57:21;27.70;62.50
52743;DHT22;55583;53.012;6.556;2023-07-29T13:59:46;27.40;63.20
52743;DHT22;55583;53.012;6.556;2023-07-29T14:02:13;27.40;63.30
52743;DHT22;55583;53.012;6.556;2023-07-29T14:04:38;27.80;63.90
52743;DHT22;55583;53.012;6.556;2023-07-29T14:07:04;28.20;62.70
52743;DHT22;55583;53.012;6.556;2023-07-29T14:09:30;28.50;63.60
52743;DHT22;55583;53.012;6.556;2023-07-29T14:11:56;28.70;62.40
52743;DHT22;55583;53.012;6.556;2023-07-29T14:14:21;28.60;61.90
52743;DHT22;55583;53.012;6.556;2023-07-29T14:16:47;28.40;62.30
52743;DHT22;55583;53.012;6.556;2023-07-29T14:19:13;28.30;63.00
52743;DHT22;55583;53.012;6.556;2023-07-29T14:21:38;28.40;62.90
52743;DHT22;55583;53.012;6.556;2023-07-29T14:24:05;28.40;62.70
52743;DHT22;55583;53.012;6.556;2023-07-29T14:26:31;28.20;62.50
52743;DHT22;55583;53.012;6.556;2023-07-29T14:28:56;27.80;63.00
52743;DHT22;55583;53.012;6.556;2023-07-29T14:31:22;27.80;62.70
52743;DHT22;55583;53.012;6.556;2023-07-29T14:33:48;27.80;62.80
52743;DHT22;55583;53.012;6.556;2023-07-29T14:36:15;27.50;63.30
52743;DHT22;55583;53.012;6.556;2023-07-29T14:38:41;27.10;63.90
52743;DHT22;55583;53.012;6.556;2023-07-29T14:41:07;26.80;64.40
52743;DHT22;55583;53.012;6.556;2023-07-29T14:43:33;26.80;64.80
52743;DHT22;55583;53.012;6.556;2023-07-29T14:45:59;26.80;64.50
52743;DHT22;55583;53.012;6.556;2023-07-29T14:48:25;27.00;65.30
52743;DHT22;55583;53.012;6.556;2023-07-29T14:50:50;27.30;64.60
52743;DHT22;55583;53.012;6.556;2023-07-29T14:53:16;27.30;65.20
52743;DHT22;55583;53.012;6.556;2023-07-29T14:55:41;27.40;65.10
52743;DHT22;55583;53.012;6.556;2023-07-29T14:58:07;27.80;64.70
52743;DHT22;55583;53.012;6.556;2023-07-29T15:00:33;28.10;64.40
52743;DHT22;55583;53.012;6.556;2023-07-29T15:02:59;28.30;63.50
52743;DHT22;55583;53.012;6.556;2023-07-29T15:05:24;28.30;63.70
52743;DHT22;55583;53.012;6.556;2023-07-29T15:07:50;28.30;63.10
52743;DHT22;55583;53.012;6.556;2023-07-29T15:10:16;28.10;63.30
52743;DHT22;55583;53.012;6.556;2023-07-29T15:12:43;27.90;64.40
52743;DHT22;55583;53.012;6.556;2023-07-29T15:15:10;28.00;64.70
52743;DHT22;55583;53.012;6.556;2023-07-29T15:17:35;28.30;65.80
52743;DHT22;55583;53.012;6.556;2023-07-29T15:20:02;28.50;64.60
52743;DHT22;55583;53.012;6.556;2023-07-29T15:22:29;28.30;63.80
52743;DHT22;55583;53.012;6.556;2023-07-29T15:24:54;28.30;64.40
52743;DHT22;55583;53.012;6.556;2023-07-29T15:27:20;28.30;64.30
52743;DHT22;55583;53.012;6.556;2023-07-29T15:29:46;28.20;63.50
52743;DHT22;55583;53.012;6.556;2023-07-29T15:32:11;28.00;63.20
52743;DHT22;55583;53.012;6.556;2023-07-29T15:34:37;27.90;63.50
52743;DHT22;55583;53.012;6.556;2023-07-29T15:37:03;27.50;64.20
52743;DHT22;55583;53.012;6.556;2023-07-29T15:39:29;27.10;64.70